createdAt,value
2023-04-03T00:01:22.977Z,1013.51
2023-04-03T00:06:22.902Z,1013.57
2023-04-03T00:11:24.842Z,1013.57
2023-04-03T00:16:22.788Z,1013.58
2023-04-03T00:21:31.589Z,1013.52
2023-04-03T00:26:22.717Z,1013.49
2023-04-03T00:31:22.605Z,1013.52
2023-04-03T00:36:22.615Z,1013.48
2023-04-03T00:41:22.460Z,1013.48
2023-04-03T00:46:22.502Z,1013.51
2023-04-03T00:51:22.393Z,1013.54
2023-04-03T00:56:22.398Z,1013.56
2023-04-03T01:01:22.364Z,1013.52
2023-04-03T01:06:22.294Z,1013.51
2023-04-03T01:11:22.211Z,1013.54
2023-04-03T01:16:22.292Z,1013.58
2023-04-03T01:21:22.072Z,1013.60
2023-04-03T01:26:22.073Z,1013.57
2023-04-03T01:31:22.113Z,1013.63
2023-04-03T01:36:21.913Z,1013.62
2023-04-03T01:41:21.865Z,1013.62
2023-04-03T01:46:21.877Z,1013.60
2023-04-03T01:51:21.824Z,1013.64
2023-04-03T01:56:21.738Z,1013.64
2023-04-03T02:01:21.812Z,1013.67
2023-04-03T02:06:21.628Z,1013.75
2023-04-03T02:11:21.686Z,1013.75
2023-04-03T02:16:21.517Z,1013.79
2023-04-03T02:21:21.519Z,1013.79
2023-04-03T02:26:21.428Z,1013.75
2023-04-03T02:31:21.376Z,1013.75
2023-04-03T02:36:21.412Z,1013.90
2023-04-03T02:41:21.437Z,1013.92
2023-04-03T02:46:21.225Z,1013.92
2023-04-03T02:51:22.143Z,1013.95
2023-04-03T02:56:21.041Z,1013.97
2023-04-03T03:01:21.053Z,1013.98
2023-04-03T03:06:20.971Z,1013.99
2023-04-03T03:11:20.927Z,1013.95
2023-04-03T03:16:20.926Z,1013.97
2023-04-03T03:21:20.896Z,1013.97
2023-04-03T03:26:20.757Z,1013.98
2023-04-03T03:31:20.766Z,1013.98
2023-04-03T03:36:20.743Z,1013.95
2023-04-03T03:41:20.611Z,1013.95
2023-04-03T03:46:20.594Z,1013.96
2023-04-03T03:51:20.524Z,1013.95
2023-04-03T03:56:20.445Z,1013.94
2023-04-03T04:01:20.389Z,1014.00
2023-04-03T04:06:20.351Z,1014.01
2023-04-03T04:11:20.346Z,1014.09
2023-04-03T04:16:20.341Z,1014.06
2023-04-03T04:21:20.161Z,1014.05
2023-04-03T04:26:20.157Z,1014.12
2023-04-03T04:31:20.125Z,1014.08
2023-04-03T04:36:20.045Z,1014.07
2023-04-03T04:41:19.916Z,1014.18
2023-04-03T04:46:19.899Z,1014.19
2023-04-03T04:51:19.836Z,1014.38
2023-04-03T04:56:19.824Z,1014.43
2023-04-03T05:01:19.801Z,1014.46
2023-04-03T05:06:19.658Z,1014.48
2023-04-03T05:11:19.722Z,1014.51
2023-04-03T05:16:19.644Z,1014.57
2023-04-03T05:21:19.480Z,1014.64
2023-04-03T05:26:19.519Z,1014.60
2023-04-03T05:31:19.465Z,1014.71
2023-04-03T05:36:19.383Z,1014.69
2023-04-03T05:41:19.336Z,1014.71
2023-04-03T05:46:19.523Z,1014.80
2023-04-03T05:51:19.161Z,1014.88
2023-04-03T05:56:19.139Z,1014.87
2023-04-03T06:01:19.048Z,1014.90
2023-04-03T06:06:19.009Z,1014.96
2023-04-03T06:11:18.946Z,1014.98
2023-04-03T06:16:18.874Z,1014.96
2023-04-03T06:21:27.745Z,1014.95
2023-04-03T06:26:18.818Z,1014.96
2023-04-03T06:31:18.761Z,1014.90
2023-04-03T06:36:18.838Z,1014.86
2023-04-03T06:41:18.650Z,1014.84
2023-04-03T06:46:18.590Z,1014.94
2023-04-03T06:51:18.541Z,1014.88
2023-04-03T06:56:18.514Z,1014.84
2023-04-03T07:01:18.453Z,1014.81
2023-04-03T07:06:18.393Z,1014.82
2023-04-03T07:11:18.339Z,1014.88
2023-04-03T07:16:18.326Z,1014.91
2023-04-03T07:21:18.197Z,1014.90
2023-04-03T07:26:18.167Z,1015.00
2023-04-03T07:31:18.275Z,1014.96
2023-04-03T07:36:18.093Z,1014.97
2023-04-03T07:41:17.979Z,1014.94
2023-04-03T07:46:18.219Z,1014.92
2023-04-03T07:51:17.981Z,1014.92
2023-04-03T07:56:17.960Z,1014.92
2023-04-03T08:01:17.826Z,1014.92
2023-04-03T08:06:19.991Z,1014.90
2023-04-03T08:11:18.673Z,1014.96
2023-04-03T08:16:18.119Z,1014.79
2023-04-03T08:21:17.732Z,1014.84
2023-04-03T08:26:17.499Z,1014.83
2023-04-03T08:31:17.473Z,1014.80
2023-04-03T08:36:17.564Z,1014.78
2023-04-03T08:41:17.536Z,1014.78
2023-04-03T08:46:17.404Z,1014.75
2023-04-03T08:51:17.234Z,1014.81
2023-04-03T08:56:17.194Z,1014.74
2023-04-03T09:01:17.144Z,1014.79
2023-04-03T09:06:17.041Z,1014.77
2023-04-03T09:11:17.725Z,1014.79
2023-04-03T09:16:17.050Z,1014.75
2023-04-03T09:21:16.846Z,1014.69
2023-04-03T09:26:16.849Z,1014.61
2023-04-03T09:31:16.795Z,1014.59
2023-04-03T09:36:16.764Z,1014.57
2023-04-03T09:41:16.708Z,1014.58
2023-04-03T09:46:17.544Z,1014.54
2023-04-03T09:51:16.577Z,1014.67
2023-04-03T09:56:16.605Z,1014.50
2023-04-03T10:01:16.718Z,1014.43
2023-04-03T10:06:17.446Z,1014.30
2023-04-03T10:11:16.442Z,1014.33
2023-04-03T10:16:16.271Z,1014.30
2023-04-03T10:21:26.572Z,1014.28
2023-04-03T10:26:17.164Z,1014.20
2023-04-03T10:31:16.220Z,1014.27
2023-04-03T10:36:16.072Z,1014.08
2023-04-03T10:41:17.438Z,1014.24
2023-04-03T10:46:16.489Z,1013.96
2023-04-03T10:51:16.055Z,1013.89
2023-04-03T10:56:15.918Z,1013.88
2023-04-03T11:01:15.884Z,1013.82
2023-04-03T11:06:15.728Z,1013.68
2023-04-03T11:11:15.693Z,1013.53
2023-04-03T11:16:15.711Z,1013.68
2023-04-03T11:21:15.609Z,1013.61
2023-04-03T11:26:15.514Z,1013.51
2023-04-03T11:31:15.516Z,1013.46
2023-04-03T11:36:24.886Z,1013.34
2023-04-03T11:41:16.573Z,1013.29
2023-04-03T11:46:15.700Z,1013.18
2023-04-03T11:51:15.248Z,1013.15
2023-04-03T11:56:15.419Z,1013.27
2023-04-03T12:01:15.281Z,1013.12
2023-04-03T12:06:15.090Z,1013.09
2023-04-03T12:11:15.079Z,1012.99
2023-04-03T12:16:15.132Z,1013.09
2023-04-03T12:22:13.245Z,1013.07
2023-04-03T12:27:13.213Z,1013.07
2023-04-03T12:32:13.121Z,1012.96
2023-04-03T12:37:13.099Z,1012.91
2023-04-03T12:42:13.090Z,1012.83
2023-04-03T12:47:13.039Z,1012.91
2023-04-03T12:52:12.958Z,1012.66
2023-04-03T12:57:12.952Z,1012.70
2023-04-03T13:02:12.882Z,1012.59
2023-04-03T13:07:12.780Z,1012.63
2023-04-03T13:12:12.822Z,1012.63
2023-04-03T13:17:12.759Z,1012.68
2023-04-03T13:22:12.657Z,1012.53
2023-04-03T13:27:12.597Z,1012.53
2023-04-03T13:32:12.515Z,1012.35
2023-04-03T13:37:12.451Z,1012.35
2023-04-03T13:42:12.457Z,1012.30
2023-04-03T13:47:12.354Z,1012.44
2023-04-03T13:52:12.308Z,1012.33
2023-04-03T13:57:12.274Z,1012.26
2023-04-03T14:02:12.187Z,1012.20
2023-04-03T14:07:12.151Z,1012.18
2023-04-03T14:12:20.949Z,1012.26
2023-04-03T14:17:13.026Z,1012.00
2023-04-03T14:22:13.005Z,1012.08
2023-04-03T14:27:12.003Z,1012.10
2023-04-03T14:32:15.088Z,1012.15
2023-04-03T14:37:11.856Z,1012.11
2023-04-03T14:42:11.828Z,1011.97
2023-04-03T14:47:14.357Z,1012.13
2023-04-03T14:52:12.730Z,1012.18
2023-04-03T14:57:11.591Z,1012.08
2023-04-03T15:02:11.609Z,1012.21
2023-04-03T15:07:11.491Z,1012.06
2023-04-03T15:12:11.397Z,1012.08
2023-04-03T15:17:11.449Z,1012.09
2023-04-03T15:22:11.343Z,1012.04
2023-04-03T15:27:11.301Z,1012.15
2023-04-03T15:32:11.464Z,1012.01
2023-04-03T15:37:11.186Z,1012.18
2023-04-03T15:42:11.153Z,1012.13
2023-04-03T15:47:11.074Z,1012.20
2023-04-03T15:52:10.983Z,1012.15
2023-04-03T15:57:11.073Z,1012.25
2023-04-03T16:02:10.961Z,1012.33
2023-04-03T16:07:10.844Z,1012.34
2023-04-03T16:12:10.834Z,1012.42
2023-04-03T16:17:10.711Z,1012.39
2023-04-03T16:22:10.669Z,1012.43
2023-04-03T16:27:10.636Z,1012.39
2023-04-03T16:32:10.615Z,1012.26
2023-04-03T16:37:10.502Z,1012.57
2023-04-03T16:42:10.530Z,1012.42
2023-04-03T16:47:10.368Z,1012.39
2023-04-03T16:52:10.310Z,1012.41
2023-04-03T16:57:10.295Z,1012.53
2023-04-03T17:02:10.230Z,1012.55
2023-04-03T17:07:10.198Z,1012.65
2023-04-03T17:12:10.216Z,1012.68
2023-04-03T17:17:10.099Z,1012.72
2023-04-03T17:22:10.017Z,1012.65
2023-04-03T17:27:10.014Z,1012.69
2023-04-03T17:32:10.038Z,1012.80
2023-04-03T17:37:10.000Z,1012.66
2023-04-03T17:42:09.759Z,1012.69
2023-04-03T17:47:09.790Z,1012.66
2023-04-03T17:52:09.694Z,1012.67
2023-04-03T17:57:09.589Z,1012.76
2023-04-03T18:02:09.576Z,1012.76
2023-04-03T18:07:09.721Z,1012.73
2023-04-03T18:12:09.438Z,1012.74
2023-04-03T18:17:09.406Z,1012.79
2023-04-03T18:22:09.416Z,1012.82
2023-04-03T18:28:42.435Z,1012.98
2023-04-03T18:33:42.472Z,1012.93
2023-04-03T18:38:42.523Z,1012.93
2023-04-03T18:43:42.579Z,1012.94
2023-04-03T18:48:42.208Z,1013.02
2023-04-03T18:53:44.095Z,1013.07
2023-04-03T18:58:42.097Z,1013.12
2023-04-03T19:03:46.558Z,1013.13
2023-04-03T19:09:04.220Z,1013.07
2023-04-03T19:13:57.819Z,1013.14
2023-04-03T19:18:47.362Z,1013.22
2023-04-03T19:23:41.650Z,1013.24
2023-04-03T19:28:42.056Z,1013.21
2023-04-03T19:33:42.230Z,1013.21
2023-04-03T19:38:41.483Z,1013.24
2023-04-03T19:43:41.624Z,1013.24
2023-04-03T19:48:41.505Z,1013.34
2023-04-03T19:53:42.921Z,1013.32
2023-04-03T19:58:42.034Z,1013.30
2023-04-03T20:03:41.540Z,1013.27
2023-04-03T20:08:53.287Z,1013.25
2023-04-03T20:13:44.004Z,1013.23
2023-04-03T20:18:42.667Z,1013.23
2023-04-03T20:23:42.592Z,1013.19
2023-04-03T20:28:43.824Z,1013.23
2023-04-03T20:33:42.825Z,1013.16
2023-04-03T20:38:42.035Z,1013.15
2023-04-03T20:43:41.961Z,1013.15
2023-04-03T20:48:41.093Z,1013.06
2023-04-03T20:53:41.306Z,1013.01
2023-04-03T20:58:42.531Z,1013.03
2023-04-03T21:03:41.459Z,1013.07
2023-04-03T21:08:43.668Z,1012.97
2023-04-03T21:13:40.734Z,1012.96
2023-04-03T21:18:40.997Z,1012.96
2023-04-03T21:23:43.890Z,1013.03
2023-04-03T21:28:41.678Z,1013.08
2023-04-03T21:33:42.738Z,1013.09
2023-04-03T21:38:40.416Z,1013.17
2023-04-03T21:43:41.169Z,1013.22
2023-04-03T21:48:40.287Z,1013.25
2023-04-03T21:53:41.487Z,1013.29
2023-04-03T21:58:42.994Z,1013.32
2023-04-03T22:03:40.385Z,1013.29
2023-04-03T22:08:40.418Z,1013.23
2023-04-03T22:13:41.289Z,1013.17
2023-04-03T22:18:39.982Z,1013.14
2023-04-03T22:23:40.935Z,1013.03
2023-04-03T22:28:43.954Z,1013.03
2023-04-03T22:33:40.177Z,1013.11
2023-04-03T22:38:40.320Z,1013.05
2023-04-03T22:43:39.983Z,1012.98
2023-04-03T22:48:40.389Z,1012.93
2023-04-03T22:53:39.602Z,1012.86
2023-04-03T22:58:39.751Z,1012.90
2023-04-03T23:03:40.409Z,1012.96
2023-04-03T23:08:39.428Z,1013.01
2023-04-03T23:13:39.550Z,1013.11
2023-04-03T23:18:39.938Z,1013.16
2023-04-03T23:23:39.285Z,1013.12
2023-04-03T23:28:39.369Z,1013.11
2023-04-03T23:33:39.336Z,1013.17
2023-04-03T23:38:39.728Z,1013.10
2023-04-03T23:43:41.291Z,1013.12
2023-04-03T23:48:40.031Z,1013.09
2023-04-03T23:53:39.216Z,1013.07
2023-04-03T23:58:40.083Z,1013.12
